KLPR

Lorain County Regional Airport

Lorain/Elyria, Ohio, USA
METAR KLPR 232200Z AUTO 29013KT 10SM SCT022 OVC029 16/10 A3012 RMK AO2 T01560100
Observed Flight Rules
Feb-23 @ 22:00 UTC (33 minutes ago) Marginal Visual Flight Rules
Wind Visibility Clouds
290° at 13 knots 10 miles
  • Scattered at 2,200' AGL
  • Overcast at 2,900' AGL
Temperatures Readings
Current 16°C / 61°F
Dewpoint 10°C / 50°F
Humidity 68%
Altimeter 30.12" Hg
Pressure 1020 hPa
Elevation 241
METAR KLPR 232200Z AUTO 29013KT 10SM SCT022 OVC029 16/10 A3012 RMK AO2 T01560100
Observed Flight Rules
Feb-23 @ 22:00 UTC
(33 minutes ago)
MVFR
Wind Visibility
290° at 13 knots 10 miles
Clouds
  • Scattered at 2,200' AGL
  • Overcast at 2,900' AGL
Temperature Dewpoint
16°C / 61°F 10°C / 50°F
Humidity Altimeter Pressure
68% 30.12" Hg 1020 hPa